Yakima, WA

03:10 AM PST on Januari 24, 2018 (GMT -0800)
Terraced Estates | | Change Station

Elev 1302 ft 46.61 °N, 120.43 °W | Updated 13 minutes ago

Mestadels molnigt
Mestadels molnigt
32.5 °F
Feels Like 32 °F
N
0.0
Vind Växlande Vind from Västlig
Gusts 0.0 miles/tim

Idag
High -- | Low -- °F
--% Chance of Precip.
Yesterday
High -- | Low -- °F
Precip. -- tum
Lufttryck 29.79 tum
Sikt 3.0 miles
Molnigt Few 2900 ft
Mestadels molnigt 16000 ft
Vindavkylning 32 °F
Daggpunkt 32 °F
Luftfuktighet 96%
Rainfall 0.00 tum
Snow Depth Not available.
7:34 AM 4:54 PM
Första kvarteret, 45% visible
METAR K1YT 241058Z AUTO 00000KT 3SM BR FEW029 BKN160 00/M01 A2979 RMK AO2 SLPNO T10021010 $
Lufttryck 29.79 tum
Sikt 3.0 miles
Molnigt Few 2900 ft
Mestadels molnigt 16000 ft
Vindavkylning 32 °F
Daggpunkt 32 °F
Luftfuktighet 96%
Rainfall 0.00 tum
Snow Depth Not available.
7:34 AM 4:54 PM
Första kvarteret, 45% visible
METAR K1YT 241058Z AUTO 00000KT 3SM BR FEW029 BKN160 00/M01 A2979 RMK AO2 SLPNO T10021010 $

Get Severe Weather Alerts

Thanks for signing up!

Be on the lookout for a verification email in your inbox.

You'll start receiving the daily forecast at 6 AM.

×

10-Day Weather Forecast

Almanac

Astronomi

Jan. 24, 2018 Rise Set
Actual Time
Civil Twilight
Nautical Twilight
Astronomical Twilight
Månen
Length Of Visible Light
Dagens längd
Tomorrow will be .
, % of the Moon is Illuminated

Today's Extremes

State Highs State Lows

Community

WunderPhotos

Category 6

Welcome to Category 6. This is the collective home for Weather Underground's featured writeups by Dr. Jeff Masters (right), Bob Henson (left), Chris Burt, and other regular contributors.

Nearby

Air Quality

  Air Quality AQ Index Pollutant
Not available.

Snödjup

Station Depth Elevation

Earthquake Activity

Stad Distance Mag. Time & Date
Minimum magnitude displayed is 2.5.

Coastal Water Temperatures

Plats Temperatur

Stations

Nearby Weather Stations

Station Location Temp Vindavkylning Daggpunkt Luftfuktighet Vind Precip. Elev Uppdaterad Type
                   

Watches & Warnings

There are currently no watches in effect.